Time;durP1;ratioP1;P1;durP2;ratioP2;P2;SDS_P1;SDS_P2;PMS_P1;PMS_P2;Temp;Humidity;BMP_temperature;BMP_pressure;BME280_temperature;BME280_humidity;BME280_pressure;Samples;Min_cycle;Max_cycle;Signal;HPM_P1;HPM_P2
2021/05/07 00:03:39;;;;;;;0.80;0.57;;;11.00;73.90;;;;;;10171086;27;20040;-66
2021/05/07 00:08:33;;;;;;;1.30;0.30;;;10.90;74.00;;;;;;10178809;27;20440;-65
2021/05/07 00:13:24;;;;;;;0.90;0.50;;;10.80;74.20;;;;;;10174397;27;20032;-66
2021/05/07 00:18:15;;;;;;;0.28;0.28;;;10.80;74.10;;;;;;10162387;27;20054;-64
2021/05/07 00:23:06;;;;;;;0.52;0.22;;;10.60;73.60;;;;;;10174056;27;20615;-63
2021/05/07 00:28:04;;;;;;;0.35;0.28;;;10.50;73.60;;;;;;10169430;27;20028;-63
2021/05/07 00:32:55;;;;;;;0.88;0.30;;;10.50;73.60;;;;;;10148228;27;20038;-63
2021/05/07 00:37:47;;;;;;;0.73;0.40;;;10.60;73.40;;;;;;10175236;27;20089;-63
2021/05/07 00:42:37;;;;;;;1.90;0.50;;;10.50;73.50;;;;;;10178244;27;20092;-64
2021/05/07 00:47:28;;;;;;;0.30;0.30;;;10.50;73.60;;;;;;10180172;27;20075;-67
2021/05/07 00:52:19;;;;;;;0.50;0.30;;;10.50;73.70;;;;;;10167953;27;20664;-65
2021/05/07 00:57:10;;;;;;;0.32;0.30;;;10.50;74.00;;;;;;10171123;27;20063;-65
2021/05/07 01:02:02;;;;;;;0.40;0.25;;;10.40;74.10;;;;;;10172098;27;20663;-64
2021/05/07 01:06:53;;;;;;;0.35;0.22;;;10.40;74.30;;;;;;10179609;27;20705;-63
2021/05/07 01:11:44;;;;;;;1.80;0.40;;;10.40;74.30;;;;;;10181784;27;20631;-65
2021/05/07 01:16:34;;;;;;;0.25;0.25;;;10.40;74.20;;;;;;10173834;27;20083;-64
2021/05/07 01:21:26;;;;;;;1.00;0.40;;;10.40;74.30;;;;;;10175528;27;20137;-63
2021/05/07 01:26:17;;;;;;;0.43;0.30;;;10.50;74.20;;;;;;10169416;27;20069;-64
2021/05/07 01:31:08;;;;;;;0.50;0.50;;;10.60;74.20;;;;;;10166405;27;20043;-64
2021/05/07 01:35:59;;;;;;;1.10;0.60;;;10.60;74.30;;;;;;10163971;27;20031;-64
2021/05/07 01:40:52;;;;;;;2.30;0.43;;;10.50;74.50;;;;;;10169232;27;20162;-63
2021/05/07 01:45:45;;;;;;;1.55;0.57;;;10.50;75.00;;;;;;10184361;27;20058;-63
2021/05/07 01:50:41;;;;;;;0.65;0.65;;;10.40;75.00;;;;;;10168910;27;20310;-63
2021/05/07 01:55:35;;;;;;;0.85;0.75;;;10.30;75.10;;;;;;10164795;27;20625;-63
2021/05/07 02:00:28;;;;;;;0.75;0.40;;;10.10;75.80;;;;;;10156182;27;20505;-65
2021/05/07 02:05:19;;;;;;;1.33;1.15;;;10.00;76.60;;;;;;10164853;28;20699;-62
2021/05/07 02:10:12;;;;;;;1.10;1.00;;;10.00;76.30;;;;;;10162451;27;20039;-63
2021/05/07 02:15:13;;;;;;;0.70;0.60;;;9.90;76.70;;;;;;10148173;28;20051;-64
2021/05/07 02:20:06;;;;;;;1.13;0.80;;;9.80;77.10;;;;;;10164799;28;20047;-64
2021/05/07 02:24:57;;;;;;;1.52;1.23;;;9.50;77.20;;;;;;10164370;28;20076;-67
2021/05/07 02:29:47;;;;;;;3.03;1.00;;;9.50;77.70;;;;;;10159048;28;20039;-63
2021/05/07 02:34:38;;;;;;;1.25;0.70;;;9.40;77.70;;;;;;10179582;28;20118;-63
2021/05/07 02:39:29;;;;;;;0.65;0.52;;;9.30;78.40;;;;;;10156182;28;20024;-63
2021/05/07 02:44:20;;;;;;;2.17;1.27;;;9.10;79.60;;;;;;10165651;28;20471;-62
2021/05/07 02:49:11;;;;;;;1.67;0.70;;;9.10;79.70;;;;;;10170161;27;20040;-63
2021/05/07 02:54:02;;;;;;;1.55;0.70;;;9.10;79.40;;;;;;10159785;27;20031;-63
2021/05/07 02:58:53;;;;;;;1.45;0.88;;;9.00;79.50;;;;;;10150416;28;20039;-63
2021/05/07 03:03:44;;;;;;;2.75;0.90;;;9.00;80.20;;;;;;10181969;27;20047;-65
2021/05/07 03:08:35;;;;;;;2.47;0.68;;;9.10;80.10;;;;;;10146824;27;20032;-64
2021/05/07 03:13:25;;;;;;;1.20;0.70;;;9.10;80.00;;;;;;10169708;27;20028;-63
2021/05/07 03:18:20;;;;;;;0.90;0.77;;;9.30;80.30;;;;;;10163904;28;20087;-63
2021/05/07 03:23:12;;;;;;;1.35;0.80;;;9.10;80.70;;;;;;10168317;27;20050;-63
2021/05/07 03:28:03;;;;;;;1.48;0.85;;;9.10;81.20;;;;;;10170004;27;20382;-63
2021/05/07 03:32:54;;;;;;;1.08;0.98;;;8.90;81.40;;;;;;10160749;27;20127;-62
2021/05/07 03:37:45;;;;;;;2.42;1.35;;;8.80;81.80;;;;;;10171232;27;20103;-63
2021/05/07 03:42:36;;;;;;;1.73;1.25;;;8.70;82.80;;;;;;10171472;27;20182;-64
2021/05/07 03:47:27;;;;;;;1.30;0.88;;;8.70;82.60;;;;;;10166536;27;20623;-65
2021/05/07 03:52:17;;;;;;;1.30;0.90;;;8.80;83.30;;;;;;10158352;28;20104;-62
2021/05/07 03:57:08;;;;;;;1.48;0.95;;;8.80;82.60;;;;;;10155145;27;20024;-63
2021/05/07 04:01:59;;;;;;;1.35;0.98;;;8.70;82.80;;;;;;10178672;27;20027;-62
2021/05/07 04:06:50;;;;;;;1.25;0.80;;;8.70;83.00;;;;;;10154919;27;20035;-62
2021/05/07 04:16:37;;;;;;;1.05;0.70;;;8.60;83.00;;;;;;10158513;27;20035;-63
2021/05/07 04:21:28;;;;;;;1.48;0.70;;;8.70;83.20;;;;;;10139274;27;20063;-62
2021/05/07 04:26:19;;;;;;;1.10;0.80;;;8.60;83.30;;;;;;10161067;27;20063;-62
2021/05/07 04:31:09;;;;;;;1.35;0.80;;;8.70;83.40;;;;;;10158164;27;20031;-64
2021/05/07 04:36:00;;;;;;;1.00;0.60;;;8.70;84.10;;;;;;10165510;27;20406;-63
2021/05/07 04:40:51;;;;;;;1.48;0.93;;;8.80;83.40;;;;;;10158373;27;20117;-63
2021/05/07 04:45:42;;;;;;;0.90;0.63;;;8.70;83.60;;;;;;10170310;27;20288;-64
2021/05/07 04:50:32;;;;;;;2.63;0.60;;;8.70;83.50;;;;;;10172364;27;20449;-62
2021/05/07 04:55:23;;;;;;;1.42;0.85;;;8.70;83.60;;;;;;10161845;27;20063;-63
2021/05/07 05:00:14;;;;;;;1.13;0.80;;;8.70;83.70;;;;;;10159068;27;20493;-63
2021/05/07 05:05:05;;;;;;;1.25;0.80;;;8.70;83.50;;;;;;10158017;27;20054;-64
2021/05/07 05:09:56;;;;;;;1.05;0.70;;;8.70;83.60;;;;;;10168083;27;20031;-63
2021/05/07 05:14:47;;;;;;;1.67;0.60;;;8.80;83.50;;;;;;10157041;27;20031;-64
2021/05/07 05:19:38;;;;;;;1.65;1.17;;;8.80;83.30;;;;;;10158946;27;20458;-63
2021/05/07 05:24:29;;;;;;;1.05;0.80;;;8.90;83.10;;;;;;10140352;28;20047;-64
2021/05/07 05:29:20;;;;;;;0.90;0.73;;;9.00;82.90;;;;;;10142426;27;20270;-64
2021/05/07 05:34:10;;;;;;;1.60;0.90;;;9.10;82.90;;;;;;10172542;27;20532;-63
2021/05/07 05:39:02;;;;;;;1.80;1.00;;;9.10;82.90;;;;;;10171605;27;20027;-63
2021/05/07 05:43:53;;;;;;;1.65;1.27;;;9.20;82.90;;;;;;10162973;27;20311;-63
2021/05/07 05:48:43;;;;;;;1.50;0.90;;;9.20;82.60;;;;;;10172060;27;20143;-62
2021/05/07 05:53:34;;;;;;;1.45;1.00;;;9.30;82.50;;;;;;10153497;27;20061;-64
2021/05/07 05:58:25;;;;;;;1.88;1.15;;;9.40;81.90;;;;;;10172599;27;20476;-63
2021/05/07 06:03:16;;;;;;;1.75;1.27;;;9.20;82.30;;;;;;10162739;27;20086;-63
2021/05/07 06:08:06;;;;;;;3.03;1.05;;;9.10;82.40;;;;;;10174306;27;20031;-63
2021/05/07 06:12:57;;;;;;;2.10;1.27;;;9.10;82.40;;;;;;10164827;27;21155;-65
2021/05/07 06:17:48;;;;;;;1.63;1.02;;;9.10;82.80;;;;;;10170336;28;20058;-63
2021/05/07 06:22:40;;;;;;;0.98;0.80;;;9.20;81.80;;;;;;10171342;28;20100;-63
2021/05/07 06:27:30;;;;;;;1.48;0.90;;;9.20;81.80;;;;;;10175738;28;20501;-65
2021/05/07 06:32:21;;;;;;;2.40;1.20;;;9.20;81.40;;;;;;10172067;28;20395;-62
2021/05/07 06:37:12;;;;;;;2.22;1.33;;;9.10;81.80;;;;;;10169045;28;20028;-64
2021/05/07 06:42:04;;;;;;;1.33;1.10;;;9.20;81.50;;;;;;10168944;28;20042;-61
2021/05/07 06:46:55;;;;;;;2.78;1.63;;;9.30;81.20;;;;;;10166918;28;20062;-61
2021/05/07 06:51:46;;;;;;;2.17;1.52;;;9.40;80.80;;;;;;10166735;28;20093;-61
2021/05/07 06:56:37;;;;;;;3.47;2.38;;;9.60;80.60;;;;;;10172980;28;20548;-61
2021/05/07 07:01:28;;;;;;;3.75;2.45;;;9.70;80.60;;;;;;10168274;28;20039;-62
2021/05/07 07:06:19;;;;;;;3.50;2.42;;;9.90;80.30;;;;;;10165234;28;20161;-62
2021/05/07 07:11:10;;;;;;;2.83;1.98;;;10.00;79.80;;;;;;10166236;28;22082;-61
2021/05/07 07:16:00;;;;;;;3.78;2.10;;;10.20;79.00;;;;;;10168375;28;20056;-61
2021/05/07 07:20:51;;;;;;;5.60;3.03;;;10.50;78.40;;;;;;10171594;28;20088;-62
2021/05/07 07:25:43;;;;;;;4.53;2.60;;;10.60;77.50;;;;;;10170888;28;20459;-61
2021/05/07 07:30:34;;;;;;;5.72;3.65;;;10.40;77.30;;;;;;10158973;27;20061;-62
2021/05/07 07:35:25;;;;;;;2.92;2.30;;;10.10;77.50;;;;;;10181354;27;20434;-61
2021/05/07 07:40:16;;;;;;;4.15;2.45;;;9.80;77.30;;;;;;10144286;27;20049;-61
2021/05/07 07:45:10;;;;;;;3.90;2.20;;;9.70;76.10;;;;;;10166989;27;20048;-62
2021/05/07 07:50:02;;;;;;;4.65;2.28;;;9.80;74.50;;;;;;10149036;28;20459;-63
2021/05/07 07:54:53;;;;;;;3.42;2.65;;;9.90;73.90;;;;;;10170785;27;20521;-62
2021/05/07 07:59:44;;;;;;;3.88;2.53;;;9.90;73.60;;;;;;10138928;27;20035;-65
2021/05/07 08:04:34;;;;;;;3.35;2.45;;;9.90;73.10;;;;;;10155712;27;20043;-60
2021/05/07 08:09:25;;;;;;;3.30;2.20;;;10.00;71.40;;;;;;10154804;27;20046;-62
2021/05/07 08:14:16;;;;;;;3.28;2.42;;;10.20;70.60;;;;;;10158711;27;20032;-62
2021/05/07 08:19:07;;;;;;;3.92;2.53;;;10.50;68.90;;;;;;10131783;28;20763;-61
2021/05/07 08:23:57;;;;;;;2.97;2.40;;;10.50;67.90;;;;;;10152524;27;20040;-63
2021/05/07 08:28:48;;;;;;;3.25;2.45;;;10.60;66.90;;;;;;10150618;27;20035;-62
2021/05/07 08:33:39;;;;;;;5.43;2.67;;;10.80;66.20;;;;;;10137908;27;20031;-63
2021/05/07 08:38:30;;;;;;;3.90;1.73;;;10.80;65.30;;;;;;10153268;27;20035;-63
2021/05/07 08:43:21;;;;;;;5.32;1.75;;;10.80;64.20;;;;;;10147919;27;20042;-64
2021/05/07 08:48:12;;;;;;;4.97;2.47;;;10.80;62.90;;;;;;10137233;27;20503;-61
2021/05/07 08:53:03;;;;;;;3.67;2.35;;;11.00;63.00;;;;;;10143768;28;20031;-60
2021/05/07 08:57:54;;;;;;;4.38;2.42;;;10.90;60.80;;;;;;10142695;27;20044;-62
2021/05/07 09:02:45;;;;;;;3.45;1.85;;;11.00;60.30;;;;;;10159189;27;20413;-64
2021/05/07 09:07:36;;;;;;;3.85;2.15;;;11.10;59.60;;;;;;10159004;27;20056;-61
2021/05/07 09:12:32;;;;;;;3.72;1.90;;;11.20;59.10;;;;;;10148184;27;21000;-60
2021/05/07 09:17:24;;;;;;;;;;;11.30;57.40;;;;;;10150401;27;20371;-61
2021/05/07 09:22:23;;;;;;;4.70;2.10;;;11.70;56.70;;;;;;10148214;27;20586;-62
2021/05/07 09:27:22;;;;;;;4.85;2.40;;;11.90;55.90;;;;;;10143114;27;20079;-63
2021/05/07 09:32:13;;;;;;;4.40;2.00;;;11.70;55.50;;;;;;10147728;27;20039;-61
2021/05/07 09:37:22;;;;;;;3.03;1.65;;;11.50;55.80;;;;;;10143417;27;20028;-63
2021/05/07 09:42:24;;;;;;;3.55;2.30;;;11.80;53.90;;;;;;10154606;27;20050;-66
2021/05/07 09:47:15;;;;;;;4.68;2.45;;;11.80;51.90;;;;;;10134839;27;20055;-62
2021/05/07 09:52:06;;;;;;;5.63;1.88;;;11.70;52.10;;;;;;10164506;27;21248;-63
2021/05/07 09:56:58;;;;;;;2.10;1.90;;;12.00;51.90;;;;;;10143632;27;20107;-62
2021/05/07 10:01:50;;;;;;;3.97;1.63;;;12.20;51.00;;;;;;10133701;27;20785;-64
2021/05/07 10:06:41;;;;;;;3.58;1.88;;;12.40;50.70;;;;;;10136614;27;20530;-60
2021/05/07 10:11:41;;;;;;;3.58;1.60;;;12.60;49.30;;;;;;10130587;28;20094;-62
2021/05/07 10:16:32;;;;;;;2.75;2.03;;;12.70;48.90;;;;;;10133533;28;20110;-62
2021/05/07 10:21:36;;;;;;;4.55;2.10;;;12.60;48.40;;;;;;10130083;28;20055;-61
2021/05/07 10:26:37;;;;;;;3.03;1.92;;;12.70;48.20;;;;;;10151103;28;20048;-63
2021/05/07 10:31:28;;;;;;;3.80;2.60;;;12.60;48.50;;;;;;10144414;28;20064;-59
2021/05/07 10:36:19;;;;;;;3.53;2.08;;;12.70;47.80;;;;;;10145224;28;20080;-59
2021/05/07 10:41:11;;;;;;;3.88;2.13;;;13.00;47.40;;;;;;10134612;28;20111;-52
2021/05/07 10:46:01;;;;;;;2.58;1.80;;;13.40;47.70;;;;;;10157980;28;20055;-57
2021/05/07 10:50:57;;;;;;;2.80;2.03;;;13.60;46.70;;;;;;10160564;28;20056;-57
2021/05/07 10:55:48;;;;;;;2.60;1.42;;;13.60;45.80;;;;;;10128417;28;20467;-61
2021/05/07 11:00:39;;;;;;;3.05;1.80;;;13.60;45.10;;;;;;10157076;28;21622;-61
2021/05/07 11:05:45;;;;;;;2.20;1.73;;;13.30;44.30;;;;;;10141582;27;20031;-61
2021/05/07 11:10:35;;;;;;;4.57;1.77;;;13.20;44.20;;;;;;10164282;27;20211;-63
2021/05/07 11:15:26;;;;;;;2.30;1.85;;;13.50;44.30;;;;;;10164663;27;20050;-63
2021/05/07 11:20:17;;;;;;;3.47;1.60;;;13.80;44.00;;;;;;10166372;27;21217;-62
2021/05/07 11:25:08;;;;;;;2.78;1.95;;;13.60;44.00;;;;;;10168404;27;20382;-62
2021/05/07 11:29:59;;;;;;;3.28;1.92;;;13.40;43.40;;;;;;10165625;27;20120;-61
2021/05/07 11:34:56;;;;;;;5.15;2.03;;;13.30;43.50;;;;;;10163260;27;20035;-62
2021/05/07 11:39:58;;;;;;;4.20;2.38;;;13.50;42.90;;;;;;10165026;27;20122;-63
2021/05/07 11:44:49;;;;;;;2.30;1.50;;;13.40;42.80;;;;;;10145964;27;20158;-64
2021/05/07 11:49:47;;;;;;;4.07;1.70;;;13.30;42.70;;;;;;10165071;27;20035;-64
2021/05/07 11:54:46;;;;;;;4.68;1.83;;;13.10;42.80;;;;;;10153032;27;20031;-61
2021/05/07 11:59:55;;;;;;;4.85;2.47;;;13.30;42.70;;;;;;10159501;27;20028;-64
2021/05/07 12:04:45;;;;;;;4.18;1.52;;;13.70;42.40;;;;;;10156344;27;20282;-65
2021/05/07 12:09:47;;;;;;;2.08;1.30;;;13.80;41.60;;;;;;10122775;27;20218;-64
2021/05/07 12:14:40;;;;;;;2.72;1.45;;;14.30;40.60;;;;;;10142592;28;20515;-60
2021/05/07 12:19:31;;;;;;;2.67;1.55;;;15.00;40.10;;;;;;10144802;27;20686;-60
2021/05/07 12:24:27;;;;;;;1.25;1.15;;;15.10;39.70;;;;;;10150274;27;20040;-62
2021/05/07 12:29:18;;;;;;;1.60;1.33;;;15.10;40.20;;;;;;10125224;27;20521;-62
2021/05/07 12:34:19;;;;;;;1.52;1.23;;;15.60;40.60;;;;;;10140069;28;20031;-62
2021/05/07 12:39:14;;;;;;;1.58;1.10;;;15.30;38.40;;;;;;10145488;27;20631;-62
2021/05/07 12:44:05;;;;;;;2.07;1.37;;;14.70;39.60;;;;;;10140696;28;21038;-64
2021/05/07 12:48:57;;;;;;;3.28;1.48;;;15.20;40.10;;;;;;10156018;27;20055;-60
2021/05/07 12:53:49;;;;;;;3.70;1.25;;;16.50;39.50;;;;;;10134686;27;20031;-62
2021/05/07 12:58:40;;;;;;;2.63;1.33;;;15.80;39.30;;;;;;10135018;27;20062;-60
2021/05/07 13:03:31;;;;;;;0.88;0.70;;;17.50;39.10;;;;;;10131978;27;20046;-60
2021/05/07 13:08:22;;;;;;;2.35;1.05;;;18.00;37.30;;;;;;10143391;27;20035;-60
2021/05/07 13:13:12;;;;;;;3.55;1.25;;;16.80;37.10;;;;;;10146545;27;20532;-61
2021/05/07 13:18:08;;;;;;;1.92;1.13;;;18.90;36.50;;;;;;10125966;28;20050;-60
2021/05/07 13:22:59;;;;;;;1.33;0.98;;;20.90;34.40;;;;;;10152582;27;20067;-59
2021/05/07 13:27:52;;;;;;;1.88;1.40;;;18.60;35.60;;;;;;10149274;27;20032;-60
2021/05/07 13:32:43;;;;;;;1.60;0.93;;;20.60;34.20;;;;;;10141430;27;20509;-60
2021/05/07 13:37:34;;;;;;;2.78;1.10;;;22.40;32.30;;;;;;10141679;27;20460;-64
2021/05/07 13:42:25;;;;;;;3.72;1.20;;;23.90;31.40;;;;;;10141848;27;20038;-62
2021/05/07 13:47:15;;;;;;;4.28;1.13;;;23.90;30.30;;;;;;10141461;27;20896;-62
2021/05/07 13:52:06;;;;;;;1.77;1.20;;;24.60;30.10;;;;;;10149389;27;20031;-63
2021/05/07 13:56:57;;;;;;;2.00;1.00;;;24.70;29.60;;;;;;10127132;27;20057;-62
2021/05/07 14:01:49;;;;;;;4.18;1.20;;;22.30;29.10;;;;;;10155331;27;20019;-60
2021/05/07 14:06:40;;;;;;;1.95;1.10;;;22.10;30.40;;;;;;10149453;27;20343;-60
2021/05/07 14:11:32;;;;;;;3.00;1.02;;;23.30;29.50;;;;;;10155771;27;20035;-61
2021/05/07 14:16:23;;;;;;;1.45;0.82;;;24.70;28.70;;;;;;10147957;27;20069;-61
2021/05/07 14:21:13;;;;;;;2.53;1.33;;;22.70;29.30;;;;;;10164911;27;20024;-60
2021/05/07 14:26:04;;;;;;;1.13;0.60;;;23.20;28.80;;;;;;10158069;28;20156;-62
2021/05/07 14:30:55;;;;;;;2.28;0.90;;;20.10;30.00;;;;;;10149652;28;20424;-62
2021/05/07 14:35:46;;;;;;;1.27;0.93;;;22.90;29.00;;;;;;10167377;28;20044;-59
2021/05/07 14:40:36;;;;;;;0.82;0.80;;;24.00;28.10;;;;;;10141636;27;20046;-60
2021/05/07 14:45:28;;;;;;;2.40;1.00;;;23.40;28.10;;;;;;10164265;27;20060;-59
2021/05/07 14:50:20;;;;;;;1.20;1.10;;;23.60;27.80;;;;;;10157400;27;20744;-58
2021/05/07 14:55:11;;;;;;;2.45;0.85;;;22.90;27.80;;;;;;10170104;27;20038;-60
2021/05/07 15:00:03;;;;;;;1.77;1.05;;;23.30;27.60;;;;;;10165657;27;20027;-59
2021/05/07 15:04:54;;;;;;;1.90;1.10;;;23.30;27.20;;;;;;10160953;27;20299;-60
2021/05/07 15:09:46;;;;;;;1.77;1.05;;;23.20;27.20;;;;;;10164566;27;20109;-58
2021/05/07 15:14:36;;;;;;;4.18;1.50;;;23.10;26.80;;;;;;10142907;28;20381;-56
2021/05/07 15:19:27;;;;;;;1.55;1.20;;;22.90;26.70;;;;;;10148540;28;20032;-62
2021/05/07 15:24:18;;;;;;;1.65;1.55;;;22.60;26.10;;;;;;10149711;27;20039;-62
2021/05/07 15:29:09;;;;;;;1.73;1.38;;;23.10;26.00;;;;;;10141299;28;20119;-62
2021/05/07 15:33:59;;;;;;;4.07;1.73;;;23.50;25.60;;;;;;10147728;27;20027;-61
2021/05/07 15:38:51;;;;;;;1.88;1.50;;;23.30;25.50;;;;;;10134489;27;20032;-60
2021/05/07 15:43:47;;;;;;;3.22;1.73;;;23.80;25.00;;;;;;10160448;27;20061;-62
2021/05/07 15:48:38;;;;;;;1.50;1.10;;;23.40;25.20;;;;;;10146877;27;21158;-62
2021/05/07 15:53:28;;;;;;;2.78;1.52;;;23.90;24.90;;;;;;10145632;27;21238;-61
2021/05/07 15:58:19;;;;;;;2.25;1.60;;;24.50;24.50;;;;;;10165162;27;20019;-60
2021/05/07 16:03:10;;;;;;;2.03;1.55;;;25.70;23.90;;;;;;10167660;27;20509;-61
2021/05/07 16:08:00;;;;;;;1.90;1.17;;;25.90;23.60;;;;;;10146855;27;20107;-60
2021/05/07 16:12:52;;;;;;;2.00;1.30;;;26.30;23.20;;;;;;10159909;28;20035;-59
2021/05/07 16:17:43;;;;;;;3.05;1.20;;;26.90;22.90;;;;;;10165422;27;20041;-61
2021/05/07 16:22:34;;;;;;;1.40;1.20;;;27.70;22.70;;;;;;10172899;27;20031;-61
2021/05/07 16:27:24;;;;;;;2.38;2.15;;;28.60;22.30;;;;;;10162927;27;20039;-60
2021/05/07 16:32:17;;;;;;;2.33;1.58;;;27.90;22.00;;;;;;10160155;27;20151;-58
2021/05/07 16:37:07;;;;;;;2.23;1.93;;;28.30;21.60;;;;;;10178687;27;20031;-62
2021/05/07 16:41:58;;;;;;;3.45;1.70;;;29.40;21.50;;;;;;10161651;27;20121;-59
2021/05/07 16:46:49;;;;;;;1.20;1.10;;;28.40;21.60;;;;;;10163418;27;20096;-59
2021/05/07 16:51:40;;;;;;;1.77;1.55;;;27.70;21.50;;;;;;10179678;27;20054;-59
2021/05/07 16:56:32;;;;;;;3.17;1.90;;;28.20;21.30;;;;;;10174764;27;20028;-63
2021/05/07 17:01:23;;;;;;;1.67;1.57;;;27.70;21.50;;;;;;10174593;27;20095;-59
2021/05/07 17:06:14;;;;;;;2.00;1.60;;;28.50;21.40;;;;;;10170324;27;20035;-60
2021/05/07 17:11:04;;;;;;;2.40;1.60;;;28.90;20.70;;;;;;10175272;27;20182;-60
2021/05/07 17:15:55;;;;;;;2.17;1.52;;;28.10;21.00;;;;;;10174574;27;20565;-58
2021/05/07 17:20:46;;;;;;;3.08;1.63;;;27.70;21.20;;;;;;10171222;27;20051;-59
2021/05/07 17:25:38;;;;;;;4.25;1.77;;;26.90;21.50;;;;;;10178291;27;20161;-61
2021/05/07 17:30:28;;;;;;;3.50;1.40;;;25.80;21.50;;;;;;10168511;27;20277;-61
2021/05/07 17:35:22;;;;;;;2.85;1.42;;;21.60;24.50;;;;;;10171399;27;20115;-61
2021/05/07 17:40:14;;;;;;;2.63;1.80;;;19.40;26.10;;;;;;10170670;27;20528;-62
2021/05/07 17:45:06;;;;;;;5.50;2.00;;;18.40;27.00;;;;;;10154176;27;20043;-64
2021/05/07 17:50:00;;;;;;;3.53;2.10;;;17.80;26.90;;;;;;10173772;27;20129;-60
2021/05/07 17:54:53;;;;;;;4.28;1.70;;;17.60;26.80;;;;;;10180036;27;20031;-61
2021/05/07 17:59:44;;;;;;;2.53;1.90;;;17.30;27.30;;;;;;10174343;27;20031;-61
2021/05/07 18:04:34;;;;;;;4.20;1.63;;;16.80;27.50;;;;;;10168265;27;20127;-60
2021/05/07 18:09:25;;;;;;;4.93;2.47;;;16.50;28.00;;;;;;10173684;27;20039;-63
2021/05/07 18:14:16;;;;;;;5.68;2.50;;;16.40;28.10;;;;;;10168923;27;21375;-60
2021/05/07 18:19:09;;;;;;;3.30;1.83;;;16.10;28.50;;;;;;10156004;28;20066;-61
2021/05/07 18:24:00;;;;;;;1.88;1.50;;;16.20;28.50;;;;;;10180438;28;20036;-61
2021/05/07 18:28:51;;;;;;;2.38;1.73;;;16.00;29.00;;;;;;10172824;28;20032;-61
2021/05/07 18:33:41;;;;;;;3.97;2.03;;;16.10;29.00;;;;;;10174428;28;20691;-60
2021/05/07 18:38:32;;;;;;;1.77;1.35;;;16.10;29.10;;;;;;10172022;28;21035;-59
2021/05/07 18:43:23;;;;;;;3.47;1.55;;;16.00;29.20;;;;;;10180519;28;20048;-60
2021/05/07 18:48:14;;;;;;;4.15;1.67;;;15.80;29.60;;;;;;10153963;28;20518;-62
2021/05/07 18:53:05;;;;;;;5.90;3.40;;;15.80;29.80;;;;;;10151037;28;20756;-60
2021/05/07 18:57:57;;;;;;;2.97;1.75;;;15.70;30.00;;;;;;10162230;28;20354;-61
2021/05/07 19:02:48;;;;;;;7.72;3.78;;;15.50;30.00;;;;;;10172471;28;20039;-61
2021/05/07 19:07:39;;;;;;;5.13;2.40;;;15.60;30.70;;;;;;10165469;28;20043;-62
2021/05/07 19:12:30;;;;;;;2.83;1.77;;;15.50;30.60;;;;;;10160211;28;20100;-63
2021/05/07 19:17:21;;;;;;;3.92;1.73;;;15.50;30.70;;;;;;10163832;28;20412;-63
2021/05/07 19:22:12;;;;;;;2.50;1.85;;;15.40;31.10;;;;;;10163232;28;20039;-63
2021/05/07 19:27:03;;;;;;;2.88;2.05;;;15.40;31.20;;;;;;10174618;27;20519;-63
2021/05/07 19:31:56;;;;;;;3.13;1.90;;;15.40;31.50;;;;;;10161934;27;20148;-63
2021/05/07 19:36:46;;;;;;;2.53;2.22;;;15.30;31.70;;;;;;10169029;27;20685;-60
2021/05/07 19:41:37;;;;;;;2.60;1.75;;;15.20;32.10;;;;;;10178397;27;20119;-62
2021/05/07 19:46:28;;;;;;;4.78;2.20;;;15.10;32.50;;;;;;10172294;27;20074;-60
2021/05/07 19:51:19;;;;;;;3.72;2.00;;;15.00;32.70;;;;;;10166538;27;20039;-61
2021/05/07 19:56:10;;;;;;;5.25;2.50;;;14.80;33.80;;;;;;10172845;27;20020;-61
2021/05/07 20:01:01;;;;;;;4.32;2.45;;;14.80;33.20;;;;;;10167830;27;20028;-61
2021/05/07 20:05:52;;;;;;;12.77;5.22;;;14.80;33.40;;;;;;10165759;27;20047;-64
2021/05/07 20:10:43;;;;;;;7.50;3.30;;;14.70;33.70;;;;;;10168021;27;20339;-60
2021/05/07 20:15:34;;;;;;;8.18;4.00;;;14.70;34.00;;;;;;10164765;27;20031;-60
2021/05/07 20:20:24;;;;;;;4.28;2.88;;;14.60;34.20;;;;;;10169924;27;20035;-62
2021/05/07 20:25:16;;;;;;;5.03;2.60;;;14.60;34.30;;;;;;10173851;27;20028;-60
2021/05/07 20:30:09;;;;;;;6.32;2.42;;;14.50;34.40;;;;;;10146513;27;20058;-61
2021/05/07 20:35:06;;;;;;;3.40;2.38;;;14.50;35.40;;;;;;10177806;27;20067;-59
2021/05/07 20:39:59;;;;;;;4.80;2.65;;;14.30;35.00;;;;;;10142147;27;20036;-60
2021/05/07 20:44:50;;;;;;;3.70;2.17;;;14.40;35.60;;;;;;10171194;27;20039;-61
2021/05/07 20:49:40;;;;;;;4.43;2.92;;;14.20;35.90;;;;;;10159769;28;20026;-59
2021/05/07 20:54:31;;;;;;;4.85;2.45;;;14.20;36.20;;;;;;10165692;27;20027;-56
2021/05/07 20:59:22;;;;;;;2.88;1.95;;;14.20;36.70;;;;;;10166787;27;20027;-60
2021/05/07 21:04:13;;;;;;;3.28;2.03;;;14.10;37.10;;;;;;10157998;27;20590;-61
2021/05/07 21:09:05;;;;;;;3.67;2.30;;;14.00;37.40;;;;;;10166015;27;20055;-61
2021/05/07 21:13:56;;;;;;;4.45;2.53;;;14.00;37.60;;;;;;10166167;27;20028;-61
2021/05/07 21:18:47;;;;;;;6.78;3.17;;;14.00;37.70;;;;;;10155843;27;20497;-55
2021/05/07 21:23:37;;;;;;;4.28;2.92;;;13.80;38.20;;;;;;10159065;27;20065;-57
2021/05/07 21:28:28;;;;;;;5.88;2.33;;;13.60;38.40;;;;;;10158415;27;20575;-56
2021/05/07 21:33:19;;;;;;;4.18;2.40;;;13.50;38.60;;;;;;10158847;27;20460;-57
2021/05/07 21:38:10;;;;;;;5.70;3.13;;;13.50;38.80;;;;;;10174581;27;20455;-57
2021/05/07 21:43:01;;;;;;;5.32;3.15;;;13.40;39.00;;;;;;10160692;27;20032;-61
2021/05/07 21:47:53;;;;;;;4.35;2.83;;;13.40;39.30;;;;;;10140328;27;20293;-58
2021/05/07 21:52:43;;;;;;;3.08;2.22;;;13.30;39.40;;;;;;10171816;27;20517;-59
2021/05/07 21:57:38;;;;;;;3.03;2.30;;;13.20;39.70;;;;;;10163217;27;20054;-57
2021/05/07 22:02:29;;;;;;;4.38;2.85;;;13.10;39.80;;;;;;10160306;27;20140;-58
2021/05/07 22:07:20;;;;;;;4.88;2.53;;;13.10;40.00;;;;;;10164066;27;20330;-55
2021/05/07 22:12:11;;;;;;;4.45;2.60;;;12.90;40.40;;;;;;10169795;27;20360;-60
2021/05/07 22:17:02;;;;;;;4.15;2.38;;;12.90;40.60;;;;;;10164056;28;20063;-60
2021/05/07 22:21:53;;;;;;;3.72;2.80;;;12.90;40.70;;;;;;10172396;27;20598;-55
2021/05/07 22:26:44;;;;;;;8.30;2.97;;;12.70;41.00;;;;;;10155841;28;20044;-56
2021/05/07 22:31:34;;;;;;;4.05;2.72;;;12.70;41.20;;;;;;10152670;28;20034;-56
2021/05/07 22:36:25;;;;;;;5.78;3.67;;;12.60;41.50;;;;;;10168960;28;20034;-59
2021/05/07 22:41:16;;;;;;;6.10;3.35;;;12.50;41.80;;;;;;10158398;28;20043;-55
2021/05/07 22:46:07;;;;;;;5.97;2.95;;;12.50;42.00;;;;;;10172731;28;20134;-56
2021/05/07 22:50:58;;;;;;;5.55;3.00;;;12.40;42.10;;;;;;10167215;28;20031;-56
2021/05/07 22:55:48;;;;;;;6.00;3.13;;;12.30;42.80;;;;;;10164226;28;20121;-54
2021/05/07 23:00:39;;;;;;;6.45;4.22;;;12.30;42.90;;;;;;10157823;28;21170;-56
2021/05/07 23:05:31;;;;;;;6.07;2.85;;;12.20;43.20;;;;;;10179089;27;20138;-56
2021/05/07 23:10:23;;;;;;;4.88;2.60;;;12.10;43.60;;;;;;10164516;27;20540;-52
2021/05/07 23:15:16;;;;;;;3.85;2.35;;;12.00;44.10;;;;;;10168973;27;20042;-57
2021/05/07 23:20:09;;;;;;;3.67;2.97;;;11.90;44.30;;;;;;10157867;27;20036;-57
2021/05/07 23:25:00;;;;;;;4.88;2.22;;;11.80;44.60;;;;;;10166776;27;20092;-55
2021/05/07 23:29:51;;;;;;;4.40;2.05;;;11.70;45.10;;;;;;10168049;27;20028;-55
2021/05/07 23:34:42;;;;;;;2.67;1.73;;;11.40;45.80;;;;;;10173024;27;20047;-55
2021/05/07 23:39:32;;;;;;;5.10;1.80;;;11.40;46.20;;;;;;10173940;27;20032;-54
2021/05/07 23:44:23;;;;;;;3.45;2.13;;;11.40;46.20;;;;;;10166297;27;20618;-55
2021/05/07 23:49:14;;;;;;;4.50;1.77;;;11.40;46.30;;;;;;10176703;27;20067;-55
2021/05/07 23:54:05;;;;;;;3.55;1.90;;;11.30;46.70;;;;;;10167424;27;20045;-56
2021/05/07 23:58:56;;;;;;;4.43;1.92;;;11.20;46.80;;;;;;10173686;27;20820;-57
